createdAt,value
2019-03-15T00:00:47.153Z,13.0
2019-03-15T00:01:47.133Z,12.8
2019-03-15T00:02:47.374Z,14.3
2019-03-15T00:03:47.104Z,13.6
2019-03-15T00:04:47.099Z,14.1
2019-03-15T00:05:47.084Z,14.8
2019-03-15T00:06:47.084Z,15.3
2019-03-15T00:07:47.064Z,14.5
2019-03-15T00:08:47.100Z,15.3
2019-03-15T00:09:47.041Z,14.6
2019-03-15T00:10:47.035Z,16.7
2019-03-15T00:11:47.018Z,18.1
2019-03-15T00:12:47.341Z,16.2
2019-03-15T00:13:46.996Z,15.3
2019-03-15T00:14:47.038Z,14.5
2019-03-15T00:15:46.983Z,14.1
2019-03-15T00:16:46.966Z,14.5
2019-03-15T00:17:46.958Z,13.8
2019-03-15T00:18:47.050Z,14.1
2019-03-15T00:19:46.938Z,12.8
2019-03-15T00:20:47.071Z,13.6
2019-03-15T00:21:46.915Z,13.6
2019-03-15T00:22:46.903Z,13.1
2019-03-15T00:23:46.892Z,13.6
2019-03-15T00:24:46.880Z,13.3
2019-03-15T00:25:46.875Z,13.5
2019-03-15T00:26:46.968Z,13.6
2019-03-15T00:27:46.853Z,13.5
2019-03-15T00:28:46.846Z,12.6
2019-03-15T00:29:46.834Z,14.8
2019-03-15T00:30:46.823Z,20.5
2019-03-15T00:31:46.807Z,14.1
2019-03-15T00:32:46.845Z,14.3
2019-03-15T00:33:46.783Z,14.3
2019-03-15T00:34:46.773Z,13.1
2019-03-15T00:35:46.763Z,13.3
2019-03-15T00:36:46.754Z,13.8
2019-03-15T00:37:46.740Z,13.1
2019-03-15T00:38:46.880Z,15.8
2019-03-15T00:39:47.452Z,14.6
2019-03-15T00:40:46.708Z,13.6
2019-03-15T00:41:46.709Z,11.8
2019-03-15T00:42:46.686Z,13.0
2019-03-15T00:43:49.232Z,12.1
2019-03-15T00:44:46.729Z,14.3
2019-03-15T00:45:46.655Z,14.3
2019-03-15T00:46:46.646Z,12.8
2019-03-15T00:47:46.633Z,13.5
2019-03-15T00:48:46.626Z,12.3
2019-03-15T00:49:47.081Z,12.6
2019-03-15T00:50:46.658Z,12.3
2019-03-15T00:51:46.593Z,13.3
2019-03-15T00:52:46.580Z,14.1
2019-03-15T00:53:46.574Z,13.6
2019-03-15T00:54:46.575Z,13.3
2019-03-15T00:55:46.549Z,13.1
2019-03-15T00:56:46.686Z,12.0
2019-03-15T00:57:46.532Z,10.8
2019-03-15T00:58:46.522Z,10.5
2019-03-15T00:59:46.507Z,11.0
2019-03-15T01:00:46.497Z,12.0
2019-03-15T01:01:46.495Z,10.8
2019-03-15T01:02:46.528Z,12.1
2019-03-15T01:03:46.468Z,12.0
2019-03-15T01:04:46.453Z,11.1
2019-03-15T01:05:46.444Z,11.3
2019-03-15T01:06:46.503Z,9.8
2019-03-15T01:07:46.433Z,9.6
2019-03-15T01:08:46.513Z,9.3
2019-03-15T01:09:46.398Z,9.1
2019-03-15T01:10:46.402Z,9.6
2019-03-15T01:11:46.381Z,9.39
2019-03-15T01:12:46.370Z,9.60
2019-03-15T01:13:46.357Z,9.69
2019-03-15T01:14:46.496Z,10.10
2019-03-15T01:15:46.342Z,11.30
2019-03-15T01:16:46.327Z,10.00
2019-03-15T01:17:46.312Z,9.60
2019-03-15T01:18:46.306Z,10.10
2019-03-15T01:19:46.296Z,54.29
2019-03-15T01:20:46.334Z,22.79
2019-03-15T01:21:46.276Z,13.89
2019-03-15T01:22:46.261Z,11.50
2019-03-15T01:23:46.256Z,11.60
2019-03-15T01:24:46.237Z,12.50
2019-03-15T01:25:46.375Z,11.30
2019-03-15T01:26:46.222Z,11.69
2019-03-15T01:27:46.214Z,12.00
2019-03-15T01:28:46.195Z,11.69
2019-03-15T01:29:46.243Z,12.30
2019-03-15T01:30:46.178Z,11.89
2019-03-15T01:31:46.212Z,12.60
2019-03-15T01:32:46.166Z,11.80
2019-03-15T01:33:46.144Z,12.10
2019-03-15T01:34:46.137Z,13.10
2019-03-15T01:35:46.120Z,13.30
2019-03-15T01:36:46.116Z,12.69
2019-03-15T01:37:46.154Z,11.60
2019-03-15T01:38:46.099Z,12.60
2019-03-15T01:39:46.080Z,12.00
2019-03-15T01:40:48.626Z,11.60
2019-03-15T01:41:46.058Z,13.39
2019-03-15T01:42:46.203Z,14.10
2019-03-15T01:43:46.043Z,13.50
2019-03-15T01:44:46.029Z,12.39
2019-03-15T01:45:46.021Z,12.89
2019-03-15T01:46:46.014Z,12.19
2019-03-15T01:47:46.001Z,12.80
2019-03-15T01:48:46.039Z,12.30
2019-03-15T01:49:45.978Z,12.19
2019-03-15T01:50:45.963Z,13.19
2019-03-15T01:51:45.953Z,13.60
2019-03-15T01:52:45.945Z,13.30
2019-03-15T01:53:45.936Z,13.80
2019-03-15T01:54:45.980Z,13.50
2019-03-15T01:55:45.916Z,13.10
2019-03-15T01:56:45.911Z,12.89
2019-03-15T01:57:45.891Z,13.39
2019-03-15T01:58:45.884Z,13.80
2019-03-15T01:59:46.028Z,13.50
2019-03-15T02:00:45.863Z,13.80
2019-03-15T02:01:45.866Z,12.80
2019-03-15T02:02:45.848Z,12.89
2019-03-15T02:03:45.828Z,13.00
2019-03-15T02:04:45.814Z,14.69
2019-03-15T02:05:45.909Z,14.60
2019-03-15T02:06:45.793Z,15.60
2019-03-15T02:07:45.786Z,15.19
2019-03-15T02:08:45.799Z,14.80
2019-03-15T02:09:45.775Z,15.00
2019-03-15T02:10:45.757Z,17.00
2019-03-15T02:11:45.799Z,15.10
2019-03-15T02:12:45.730Z,16.00
2019-03-15T02:13:45.720Z,17.00
2019-03-15T02:14:45.713Z,15.10
2019-03-15T02:15:45.701Z,15.69
2019-03-15T02:16:45.692Z,14.89
2019-03-15T02:17:45.929Z,15.69
2019-03-15T02:18:45.684Z,15.10
2019-03-15T02:19:45.662Z,15.69
2019-03-15T02:20:45.652Z,13.50
2019-03-15T02:21:45.666Z,12.60
2019-03-15T02:22:45.624Z,13.10
2019-03-15T02:23:45.715Z,14.00
2019-03-15T02:24:45.600Z,14.19
2019-03-15T02:25:45.595Z,14.00
2019-03-15T02:26:45.583Z,13.50
2019-03-15T02:27:45.573Z,13.89
2019-03-15T02:28:45.567Z,14.60
2019-03-15T02:29:45.626Z,13.50
2019-03-15T02:30:45.551Z,15.30
2019-03-15T02:31:45.671Z,15.69
2019-03-15T02:32:45.535Z,14.30
2019-03-15T02:33:45.508Z,12.10
2019-03-15T02:34:45.512Z,11.69
2019-03-15T02:35:47.098Z,13.00
2019-03-15T02:36:45.480Z,14.10
2019-03-15T02:37:45.465Z,17.39
2019-03-15T02:38:45.456Z,14.69
2019-03-15T02:39:46.189Z,14.39
2019-03-15T02:40:45.546Z,13.10
2019-03-15T02:41:45.426Z,13.39
2019-03-15T02:42:45.448Z,13.89
2019-03-15T02:43:46.031Z,17.89
2019-03-15T02:44:45.393Z,21.50
2019-03-15T02:45:45.433Z,17.00
2019-03-15T02:46:45.380Z,16.50
2019-03-15T02:47:46.313Z,14.80
2019-03-15T02:48:45.359Z,13.39
2019-03-15T02:49:45.344Z,12.50
2019-03-15T02:50:45.330Z,14.69
2019-03-15T02:51:45.561Z,19.50
2019-03-15T02:52:45.325Z,20.29
2019-03-15T02:53:45.313Z,17.60
2019-03-15T02:54:45.290Z,14.69
2019-03-15T02:55:45.285Z,14.00
2019-03-15T02:56:45.267Z,13.60
2019-03-15T02:57:45.310Z,13.39
2019-03-15T02:58:45.250Z,14.10
2019-03-15T02:59:45.308Z,13.89
2019-03-15T03:00:45.240Z,15.69
2019-03-15T03:01:45.234Z,16.29
2019-03-15T03:02:45.201Z,17.79
2019-03-15T03:03:45.316Z,17.50
2019-03-15T03:04:45.182Z,16.50
2019-03-15T03:05:45.176Z,18.00
2019-03-15T03:06:45.164Z,18.20
2019-03-15T03:07:45.254Z,18.10
2019-03-15T03:08:45.141Z,18.39
2019-03-15T03:09:45.330Z,18.39
2019-03-15T03:10:45.138Z,18.39
2019-03-15T03:11:45.113Z,18.50
2019-03-15T03:12:45.098Z,19.10
2019-03-15T03:13:45.088Z,17.79
2019-03-15T03:14:45.097Z,15.80
2019-03-15T03:15:45.121Z,16.00
2019-03-15T03:16:46.029Z,15.39
2019-03-15T03:17:45.051Z,15.80
2019-03-15T03:18:45.038Z,16.39
2019-03-15T03:19:45.021Z,16.39
2019-03-15T03:20:45.014Z,14.39
2019-03-15T03:21:45.058Z,14.19
2019-03-15T03:22:44.996Z,14.10
2019-03-15T03:23:44.990Z,13.69
2019-03-15T03:24:44.969Z,14.39
2019-03-15T03:25:45.010Z,14.10
2019-03-15T03:26:45.002Z,14.89
2019-03-15T03:27:44.945Z,13.80
2019-03-15T03:28:44.944Z,13.39
2019-03-15T03:29:44.930Z,13.19
2019-03-15T03:30:46.620Z,12.10
2019-03-15T03:31:46.056Z,11.39
2019-03-15T03:32:45.094Z,11.69
2019-03-15T03:33:44.882Z,11.69
2019-03-15T03:34:44.889Z,10.60
2019-03-15T03:35:44.861Z,11.60
2019-03-15T03:36:44.849Z,10.80
2019-03-15T03:37:45.321Z,10.69
2019-03-15T03:38:44.837Z,11.10
2019-03-15T03:39:44.816Z,11.39
2019-03-15T03:40:44.814Z,11.80
2019-03-15T03:41:44.799Z,11.80
2019-03-15T03:42:44.788Z,11.30
2019-03-15T03:43:45.123Z,11.19
2019-03-15T03:44:44.760Z,11.69
2019-03-15T03:45:44.751Z,11.10
2019-03-15T03:46:44.741Z,11.80
2019-03-15T03:47:44.731Z,11.80
2019-03-15T03:48:44.717Z,11.19
2019-03-15T03:49:44.864Z,11.19
2019-03-15T03:50:44.699Z,11.19
2019-03-15T03:51:44.694Z,11.00
2019-03-15T03:52:44.681Z,10.80
2019-03-15T03:53:44.668Z,10.80
2019-03-15T03:54:44.660Z,10.30
2019-03-15T03:55:44.756Z,10.80
2019-03-15T03:56:44.640Z,11.10
2019-03-15T03:57:44.630Z,11.00
2019-03-15T03:58:44.617Z,11.30
2019-03-15T03:59:44.601Z,10.69
2019-03-15T04:00:44.692Z,11.00
2019-03-15T04:01:44.583Z,11.30
2019-03-15T04:02:44.572Z,10.50
2019-03-15T04:03:44.570Z,10.10
2019-03-15T04:04:44.551Z,9.10
2019-03-15T04:05:44.544Z,9.50
2019-03-15T04:06:44.685Z,9.60
2019-03-15T04:07:44.519Z,9.39
2019-03-15T04:08:44.521Z,9.19
2019-03-15T04:09:44.500Z,9.10
2019-03-15T04:10:44.491Z,9.60
2019-03-15T04:11:54.830Z,9.00
2019-03-15T04:12:45.612Z,9.10
2019-03-15T04:13:44.457Z,8.50
2019-03-15T04:14:44.445Z,8.39
2019-03-15T04:15:44.433Z,9.39
2019-03-15T04:16:44.429Z,9.10
2019-03-15T04:17:44.419Z,9.89
2019-03-15T04:18:44.504Z,9.80
2019-03-15T04:19:44.401Z,9.30
2019-03-15T04:20:44.386Z,9.10
2019-03-15T04:21:44.381Z,8.69
2019-03-15T04:22:44.366Z,8.60
2019-03-15T04:23:44.353Z,9.60
2019-03-15T04:24:44.400Z,10.50
2019-03-15T04:25:44.354Z,10.00
2019-03-15T04:26:44.333Z,9.00
2019-03-15T04:27:44.312Z,9.69
2019-03-15T04:28:44.305Z,10.19
2019-03-15T04:29:44.492Z,10.00
2019-03-15T04:30:44.279Z,9.50
2019-03-15T04:31:44.281Z,10.80
2019-03-15T04:32:44.265Z,9.80
2019-03-15T04:33:44.244Z,10.19
2019-03-15T04:34:44.239Z,10.00
2019-03-15T04:35:44.325Z,9.50
2019-03-15T04:36:44.220Z,10.50
2019-03-15T04:37:44.213Z,9.89
2019-03-15T04:38:44.197Z,9.39
2019-03-15T04:39:44.202Z,9.69
2019-03-15T04:40:44.174Z,10.19
2019-03-15T04:41:44.222Z,10.00
2019-03-15T04:42:44.152Z,9.69
2019-03-15T04:43:44.144Z,9.89
2019-03-15T04:44:44.133Z,9.80
2019-03-15T04:45:44.118Z,10.19
2019-03-15T04:46:44.115Z,9.80
2019-03-15T04:47:44.310Z,9.60
2019-03-15T04:48:44.095Z,9.19
2019-03-15T04:49:44.079Z,9.30
2019-03-15T04:50:44.070Z,9.19
2019-03-15T04:51:44.061Z,9.00
2019-03-15T04:52:44.051Z,8.00
2019-03-15T04:53:44.136Z,8.50
2019-03-15T04:54:44.030Z,8.80
2019-03-15T04:55:44.087Z,8.60
2019-03-15T04:56:44.019Z,8.10
2019-03-15T04:57:44.007Z,7.69
2019-03-15T04:58:43.991Z,7.80
2019-03-15T04:59:44.077Z,6.59
2019-03-15T05:00:43.965Z,6.80
2019-03-15T05:01:43.955Z,7.30
2019-03-15T05:02:43.944Z,7.30
2019-03-15T05:03:43.939Z,7.59
2019-03-15T05:04:43.926Z,7.80
2019-03-15T05:05:44.067Z,7.59
2019-03-15T05:06:43.903Z,6.90
2019-03-15T05:07:43.889Z,7.40
2019-03-15T05:08:43.881Z,7.30
2019-03-15T05:09:43.876Z,7.80
2019-03-15T05:10:43.864Z,8.00
2019-03-15T05:11:43.949Z,7.90
2019-03-15T05:12:43.838Z,7.59
2019-03-15T05:13:43.827Z,7.40
2019-03-15T05:14:43.827Z,7.30
2019-03-15T05:15:43.860Z,7.19
2019-03-15T05:16:43.799Z,6.90
2019-03-15T05:17:43.890Z,7.00
2019-03-15T05:18:43.773Z,7.40
2019-03-15T05:19:43.767Z,7.30
2019-03-15T05:20:43.758Z,7.09
2019-03-15T05:21:43.753Z,7.00
2019-03-15T05:22:43.732Z,7.69
2019-03-15T05:23:43.925Z,7.50
2019-03-15T05:24:43.764Z,7.09
2019-03-15T05:25:43.704Z,6.80
2019-03-15T05:26:43.690Z,7.30
2019-03-15T05:27:43.688Z,7.00
2019-03-15T05:28:43.674Z,7.00
2019-03-15T05:29:43.768Z,6.80
2019-03-15T05:30:43.649Z,6.80
2019-03-15T05:31:43.643Z,7.19
2019-03-15T05:32:43.632Z,6.00
2019-03-15T05:33:43.619Z,5.90
2019-03-15T05:34:43.658Z,6.00
2019-03-15T05:35:43.650Z,5.90
2019-03-15T05:36:43.590Z,5.90
2019-03-15T05:37:43.585Z,6.00
2019-03-15T05:38:43.572Z,6.09
2019-03-15T05:39:43.558Z,5.90
2019-03-15T05:40:43.651Z,5.40
2019-03-15T05:41:43.558Z,5.19
2019-03-15T05:42:43.527Z,5.69
2019-03-15T05:43:43.526Z,4.90
2019-03-15T05:44:43.510Z,5.19
2019-03-15T05:45:43.505Z,5.40
2019-03-15T05:46:43.540Z,5.19
2019-03-15T05:47:43.476Z,5.09
2019-03-15T05:48:43.625Z,5.09
2019-03-15T05:49:43.491Z,5.40
2019-03-15T05:50:43.447Z,5.69
2019-03-15T05:51:43.437Z,5.19
2019-03-15T05:52:43.476Z,5.90
2019-03-15T05:53:43.415Z,5.69
2019-03-15T05:54:43.408Z,5.50
2019-03-15T05:55:43.392Z,5.50
2019-03-15T05:56:43.381Z,5.19
2019-03-15T05:57:43.626Z,5.69
2019-03-15T05:58:43.361Z,5.19
2019-03-15T05:59:43.383Z,5.80
2019-03-15T06:00:43.341Z,5.40
2019-03-15T06:01:43.330Z,5.59
2019-03-15T06:02:43.327Z,6.00
2019-03-15T06:03:48.348Z,5.90
2019-03-15T06:04:43.306Z,6.69
2019-03-15T06:05:43.286Z,6.69
2019-03-15T06:06:43.280Z,6.80
2019-03-15T06:07:43.268Z,6.69
2019-03-15T06:08:43.255Z,6.30
2019-03-15T06:09:43.354Z,6.30
2019-03-15T06:10:43.239Z,5.69
2019-03-15T06:11:43.244Z,5.80
2019-03-15T06:12:43.210Z,6.50
2019-03-15T06:13:43.209Z,6.19
2019-03-15T06:14:46.536Z,6.19
2019-03-15T06:15:43.388Z,6.19
2019-03-15T06:16:43.173Z,6.30
2019-03-15T06:17:43.159Z,6.09
2019-03-15T06:18:43.150Z,6.30
2019-03-15T06:19:43.136Z,6.00
2019-03-15T06:20:43.380Z,6.40
2019-03-15T06:21:43.121Z,5.90
2019-03-15T06:22:43.107Z,5.80
2019-03-15T06:23:43.100Z,6.09
2019-03-15T06:24:43.086Z,6.00
2019-03-15T06:25:43.081Z,5.69
2019-03-15T06:26:43.111Z,5.69
2019-03-15T06:27:43.052Z,6.00
2019-03-15T06:28:43.040Z,5.80
2019-03-15T06:29:43.040Z,6.19
2019-03-15T06:30:43.027Z,6.40
2019-03-15T06:31:43.008Z,5.80
2019-03-15T06:32:43.055Z,5.59
2019-03-15T06:33:42.987Z,5.90
2019-03-15T06:34:42.977Z,7.59
2019-03-15T06:35:42.967Z,5.69
2019-03-15T06:36:42.956Z,5.09
2019-03-15T06:37:42.948Z,4.50
2019-03-15T06:38:43.088Z,5.30
2019-03-15T06:39:42.926Z,4.80
2019-03-15T06:40:42.910Z,5.09
2019-03-15T06:41:42.902Z,4.30
2019-03-15T06:42:42.888Z,5.30
2019-03-15T06:43:42.880Z,5.69
2019-03-15T06:44:42.922Z,5.59
2019-03-15T06:45:42.873Z,4.40
2019-03-15T06:46:42.856Z,5.00
2019-03-15T06:47:42.835Z,4.30
2019-03-15T06:48:45.001Z,4.30
2019-03-15T06:49:42.815Z,4.40
2019-03-15T06:50:42.908Z,4.50
2019-03-15T06:51:42.804Z,5.09
2019-03-15T06:52:42.790Z,4.69
2019-03-15T06:53:42.778Z,5.09
2019-03-15T06:54:42.775Z,5.09
2019-03-15T06:55:42.907Z,4.40
2019-03-15T06:56:42.752Z,4.69
2019-03-15T06:57:42.739Z,4.59
2019-03-15T06:58:42.729Z,4.59
2019-03-15T06:59:42.721Z,4.30
2019-03-15T07:00:42.700Z,4.09
2019-03-15T07:01:42.800Z,4.09
2019-03-15T07:02:42.689Z,4.50
2019-03-15T07:03:42.669Z,4.40
2019-03-15T07:04:42.660Z,4.09
2019-03-15T07:05:42.651Z,4.50
2019-03-15T07:06:42.952Z,4.80
2019-03-15T07:07:42.734Z,5.09
2019-03-15T07:08:42.616Z,5.30
2019-03-15T07:09:42.611Z,5.19
2019-03-15T07:10:44.181Z,5.40
2019-03-15T07:11:42.595Z,4.59
2019-03-15T07:12:42.588Z,4.69
2019-03-15T07:13:42.733Z,5.00
2019-03-15T07:14:42.641Z,4.80
2019-03-15T07:15:44.357Z,4.69
2019-03-15T07:16:42.541Z,4.69
2019-03-15T07:17:42.532Z,4.19
2019-03-15T07:18:42.517Z,4.50
2019-03-15T07:19:42.609Z,4.90
2019-03-15T07:20:42.492Z,4.80
2019-03-15T07:21:42.484Z,4.80
2019-03-15T07:22:42.477Z,4.50
2019-03-15T07:23:42.482Z,4.90
2019-03-15T07:24:43.970Z,4.90
2019-03-15T07:25:42.539Z,4.80
2019-03-15T07:26:43.700Z,3.59
2019-03-15T07:27:43.151Z,3.40
2019-03-15T07:28:42.419Z,3.70
2019-03-15T07:29:42.402Z,4.19
2019-03-15T07:30:42.391Z,4.40
2019-03-15T07:31:42.581Z,4.19
2019-03-15T07:32:42.375Z,4.00
2019-03-15T07:33:42.362Z,3.90
2019-03-15T07:34:42.352Z,4.00
2019-03-15T07:35:42.334Z,3.50
2019-03-15T07:36:42.435Z,3.79
2019-03-15T07:37:45.345Z,3.00
2019-03-15T07:38:42.309Z,3.29
2019-03-15T07:39:42.299Z,3.09
2019-03-15T07:40:42.290Z,2.90
2019-03-15T07:41:42.279Z,3.29
2019-03-15T07:42:42.314Z,3.59
2019-03-15T07:43:42.287Z,3.50
2019-03-15T07:44:42.245Z,3.40
2019-03-15T07:45:42.259Z,4.30
2019-03-15T07:46:42.222Z,3.59
2019-03-15T07:47:42.369Z,4.40
2019-03-15T07:48:42.203Z,4.30
2019-03-15T07:49:42.196Z,3.79
2019-03-15T07:50:42.183Z,4.50
2019-03-15T07:51:42.174Z,4.19
2019-03-15T07:52:42.166Z,4.19
2019-03-15T07:53:42.253Z,4.40
2019-03-15T07:54:42.143Z,3.90
2019-03-15T07:55:42.137Z,3.90
2019-03-15T07:56:42.124Z,4.30
2019-03-15T07:57:42.115Z,4.00
2019-03-15T07:58:42.118Z,4.30
2019-03-15T07:59:42.144Z,4.00
2019-03-15T08:00:42.081Z,4.09
2019-03-15T08:01:42.071Z,4.40
2019-03-15T08:02:42.058Z,4.09
2019-03-15T08:03:42.049Z,4.69
2019-03-15T08:04:42.040Z,3.90
2019-03-15T08:05:42.133Z,4.30
2019-03-15T08:06:42.021Z,4.50
2019-03-15T08:07:45.119Z,4.30
2019-03-15T08:08:42.053Z,4.30
2019-03-15T08:09:41.984Z,4.80
2019-03-15T08:10:41.987Z,4.30
2019-03-15T08:11:42.076Z,4.09
2019-03-15T08:12:41.955Z,3.90
2019-03-15T08:13:41.939Z,3.40
2019-03-15T08:14:41.937Z,3.40
2019-03-15T08:15:41.919Z,3.90
2019-03-15T08:16:42.066Z,3.90
2019-03-15T08:17:41.901Z,3.70
2019-03-15T08:18:41.891Z,3.70
2019-03-15T08:19:41.880Z,3.70
2019-03-15T08:20:41.870Z,3.70
2019-03-15T08:21:41.857Z,3.29
2019-03-15T08:22:41.952Z,3.20
2019-03-15T08:23:41.837Z,3.00
2019-03-15T08:24:51.421Z,3.00
2019-03-15T08:26:06.633Z,3.40
2019-03-15T08:27:06.617Z,3.20
2019-03-15T08:28:06.660Z,3.09
2019-03-15T08:29:09.468Z,3.00
2019-03-15T08:30:06.588Z,3.09
2019-03-15T08:31:06.579Z,2.59
2019-03-15T08:32:06.571Z,3.00
2019-03-15T08:33:10.588Z,3.20
2019-03-15T08:34:06.746Z,2.90
2019-03-15T08:35:06.541Z,3.09
2019-03-15T08:36:06.530Z,3.29
2019-03-15T08:37:06.516Z,3.40
2019-03-15T08:38:06.509Z,3.40
2019-03-15T08:39:06.493Z,2.70
2019-03-15T08:40:06.596Z,3.00
2019-03-15T08:41:06.479Z,2.59
2019-03-15T08:42:06.468Z,2.29
2019-03-15T08:43:06.458Z,2.59
2019-03-15T08:44:06.446Z,2.59
2019-03-15T08:45:06.538Z,2.50
2019-03-15T08:46:06.423Z,2.70
2019-03-15T08:47:06.420Z,2.90
2019-03-15T08:48:06.403Z,2.79
2019-03-15T08:49:06.399Z,2.50
2019-03-15T08:50:06.379Z,2.79
2019-03-15T08:51:06.578Z,2.79
2019-03-15T08:52:06.369Z,2.90
2019-03-15T08:53:06.356Z,3.09
2019-03-15T08:54:06.344Z,3.20
2019-03-15T08:55:06.332Z,3.00
2019-03-15T08:56:06.324Z,3.00
2019-03-15T08:57:06.410Z,3.00
2019-03-15T08:58:13.823Z,2.79
2019-03-15T08:59:07.394Z,2.70
2019-03-15T09:00:06.294Z,2.79
2019-03-15T09:01:06.270Z,3.00
2019-03-15T09:02:06.312Z,2.50
2019-03-15T09:03:06.250Z,2.50
2019-03-15T09:04:06.243Z,2.59
2019-03-15T09:05:06.383Z,2.70
2019-03-15T09:06:06.216Z,2.50
2019-03-15T09:07:06.204Z,3.00
2019-03-15T09:08:06.300Z,2.70
2019-03-15T09:09:06.188Z,3.09
2019-03-15T09:10:06.188Z,3.40
2019-03-15T09:11:06.166Z,3.00
2019-03-15T09:12:06.162Z,3.20
2019-03-15T09:13:06.301Z,3.29
2019-03-15T09:14:06.139Z,3.00
2019-03-15T09:15:06.126Z,3.20
2019-03-15T09:16:06.118Z,3.29
2019-03-15T09:17:06.108Z,3.20
2019-03-15T09:18:06.097Z,3.29
2019-03-15T09:19:06.138Z,3.00
2019-03-15T09:20:06.082Z,3.29
2019-03-15T09:21:06.067Z,3.40
2019-03-15T09:22:06.056Z,3.50
2019-03-15T09:23:06.045Z,3.29
2019-03-15T09:24:06.043Z,3.40
2019-03-15T09:25:18.711Z,3.29
2019-03-15T09:26:10.312Z,3.79
2019-03-15T09:27:06.005Z,3.79
2019-03-15T09:28:05.999Z,3.29
2019-03-15T09:29:05.979Z,3.79
2019-03-15T09:30:06.070Z,3.59
2019-03-15T09:31:07.512Z,3.00
2019-03-15T09:32:09.169Z,3.20
2019-03-15T09:33:05.939Z,3.20
2019-03-15T09:34:05.925Z,3.50
2019-03-15T09:35:06.116Z,3.59
2019-03-15T09:36:05.907Z,3.90
2019-03-15T09:37:05.909Z,4.00
2019-03-15T09:38:05.883Z,3.50
2019-03-15T09:39:05.877Z,3.79
2019-03-15T09:40:05.866Z,3.59
2019-03-15T09:41:05.995Z,3.70
2019-03-15T09:42:05.849Z,3.29
2019-03-15T09:43:05.831Z,3.59
2019-03-15T09:44:05.822Z,3.00
2019-03-15T09:45:05.811Z,3.09
2019-03-15T09:46:05.804Z,2.79
2019-03-15T09:47:05.888Z,3.40
2019-03-15T09:48:05.779Z,3.59
2019-03-15T09:49:05.766Z,3.50
2019-03-15T09:50:05.757Z,3.00
2019-03-15T09:51:05.745Z,3.70
2019-03-15T09:52:05.736Z,2.90
2019-03-15T09:53:06.482Z,3.09
2019-03-15T09:54:05.713Z,3.40
2019-03-15T09:55:05.706Z,3.50
2019-03-15T09:56:05.692Z,3.09
2019-03-15T09:57:05.687Z,3.50
2019-03-15T09:58:05.673Z,3.20
2019-03-15T09:59:05.764Z,3.50
2019-03-15T10:00:05.659Z,3.79
2019-03-15T10:01:06.195Z,4.00
2019-03-15T10:02:07.804Z,3.79
2019-03-15T10:03:05.621Z,3.50
2019-03-15T10:04:05.630Z,3.50
2019-03-15T10:05:10.783Z,3.70
2019-03-15T10:06:15.400Z,3.90
2019-03-15T10:07:06.704Z,3.20
2019-03-15T10:08:05.565Z,3.40
2019-03-15T10:09:05.557Z,3.00
2019-03-15T10:10:13.565Z,2.79
2019-03-15T10:11:30.497Z,3.50
2019-03-15T10:12:30.486Z,3.59
2019-03-15T10:13:30.475Z,3.40
2019-03-15T10:14:30.467Z,3.50
2019-03-15T10:15:30.493Z,3.29
2019-03-15T10:16:30.494Z,3.79
2019-03-15T10:17:30.439Z,3.29
2019-03-15T10:18:30.426Z,3.29
2019-03-15T10:19:30.414Z,3.59
2019-03-15T10:20:30.403Z,3.40
2019-03-15T10:21:30.394Z,3.20
2019-03-15T10:22:30.433Z,4.09
2019-03-15T10:23:30.373Z,3.50
2019-03-15T10:24:30.365Z,3.09
2019-03-15T10:25:30.359Z,3.20
2019-03-15T10:26:30.343Z,3.29
2019-03-15T10:27:30.330Z,3.70
2019-03-15T10:28:30.470Z,3.70
2019-03-15T10:29:30.308Z,3.79
2019-03-15T10:30:30.303Z,3.29
2019-03-15T10:31:30.291Z,3.59
2019-03-15T10:32:30.283Z,3.59
2019-03-15T10:33:30.269Z,3.40
2019-03-15T10:34:30.359Z,3.09
2019-03-15T10:35:30.254Z,3.09
2019-03-15T10:36:30.239Z,3.09
2019-03-15T10:37:30.229Z,3.40
2019-03-15T10:38:30.218Z,3.09
2019-03-15T10:39:30.204Z,3.20
2019-03-15T10:40:30.250Z,3.40
2019-03-15T10:41:30.184Z,3.50
2019-03-15T10:42:30.175Z,3.29
2019-03-15T10:43:30.161Z,2.90
2019-03-15T10:44:30.151Z,3.09
2019-03-15T10:45:30.142Z,4.09
2019-03-15T10:46:30.379Z,3.50
2019-03-15T10:47:30.122Z,5.19
2019-03-15T10:48:30.107Z,3.09
2019-03-15T10:49:30.964Z,3.50
2019-03-15T10:50:30.088Z,3.70
2019-03-15T10:51:30.125Z,3.40
2019-03-15T10:52:30.069Z,3.09
2019-03-15T10:53:30.054Z,3.20
2019-03-15T10:54:30.044Z,3.29
2019-03-15T10:55:30.037Z,3.20
2019-03-15T10:56:30.023Z,3.29
2019-03-15T10:57:30.117Z,3.59
2019-03-15T10:58:30.006Z,3.29
2019-03-15T10:59:29.993Z,3.59
2019-03-15T11:00:29.983Z,3.40
2019-03-15T11:01:29.972Z,3.50
2019-03-15T11:02:30.112Z,3.00
2019-03-15T11:03:29.952Z,3.29
2019-03-15T11:04:29.942Z,3.40
2019-03-15T11:05:29.928Z,3.50
2019-03-15T11:06:29.919Z,3.59
2019-03-15T11:07:29.909Z,3.70
2019-03-15T11:08:29.954Z,3.50
2019-03-15T11:09:29.893Z,3.40
2019-03-15T11:10:29.881Z,3.50
2019-03-15T11:11:29.863Z,3.40
2019-03-15T11:12:29.860Z,3.20
2019-03-15T11:13:29.998Z,3.90
2019-03-15T11:14:29.833Z,3.59
2019-03-15T11:15:29.825Z,3.29
2019-03-15T11:16:29.815Z,3.50
2019-03-15T11:17:29.814Z,3.29
2019-03-15T11:18:29.942Z,3.20
2019-03-15T11:19:29.785Z,3.00
2019-03-15T11:20:29.768Z,6.19
2019-03-15T11:21:29.769Z,3.79
2019-03-15T11:22:29.756Z,4.69
2019-03-15T11:23:29.739Z,6.40
2019-03-15T11:24:29.785Z,3.09
2019-03-15T11:25:29.717Z,3.00
2019-03-15T11:26:29.712Z,3.40
2019-03-15T11:27:29.699Z,3.29
2019-03-15T11:28:29.691Z,3.59
2019-03-15T11:29:29.712Z,4.59
2019-03-15T11:30:29.766Z,3.29
2019-03-15T11:31:29.658Z,3.40
2019-03-15T11:32:29.649Z,3.90
2019-03-15T11:33:29.632Z,3.29
2019-03-15T11:34:29.628Z,3.09
2019-03-15T11:35:29.615Z,3.70
2019-03-15T11:36:29.753Z,2.79
2019-03-15T11:37:29.593Z,3.20
2019-03-15T11:38:29.579Z,3.09
2019-03-15T11:39:29.565Z,5.90
2019-03-15T11:40:29.561Z,5.80
2019-03-15T11:41:29.549Z,7.59
2019-03-15T11:42:29.588Z,4.69
2019-03-15T11:43:29.529Z,3.70
2019-03-15T11:44:29.519Z,4.00
2019-03-15T11:45:29.507Z,4.30
2019-03-15T11:46:29.498Z,3.79
2019-03-15T11:47:29.553Z,3.29
2019-03-15T11:48:29.576Z,3.29
2019-03-15T11:49:29.467Z,3.59
2019-03-15T11:50:29.455Z,3.40
2019-03-15T11:51:29.452Z,4.19
2019-03-15T11:52:29.435Z,3.59
2019-03-15T11:53:29.431Z,3.90
2019-03-15T11:54:29.662Z,4.19
2019-03-15T11:55:29.401Z,5.50
2019-03-15T11:56:29.390Z,7.59
2019-03-15T11:57:29.384Z,4.69
2019-03-15T11:58:29.368Z,3.09
2019-03-15T11:59:29.364Z,3.90
2019-03-15T12:00:29.398Z,4.40
2019-03-15T12:01:29.358Z,4.40
2019-03-15T12:02:29.327Z,4.30
2019-03-15T12:03:29.330Z,4.00
2019-03-15T12:04:29.302Z,3.50
2019-03-15T12:05:29.296Z,3.90
2019-03-15T12:06:29.337Z,4.40
2019-03-15T12:07:29.277Z,3.50
2019-03-15T12:08:29.264Z,3.59
2019-03-15T12:09:29.255Z,3.90
2019-03-15T12:10:29.242Z,4.19
2019-03-15T12:11:29.231Z,4.59
2019-03-15T12:12:29.371Z,4.09
2019-03-15T12:13:29.208Z,3.29
2019-03-15T12:14:40.424Z,3.79
2019-03-15T12:15:54.095Z,3.90
2019-03-15T12:16:54.003Z,4.09
2019-03-15T12:17:54.041Z,3.90
2019-03-15T12:18:53.975Z,4.69
2019-03-15T12:19:53.963Z,4.80
2019-03-15T12:20:53.951Z,4.50
2019-03-15T12:22:05.830Z,4.50
2019-03-15T12:23:18.843Z,4.90
2019-03-15T12:24:18.834Z,4.90
2019-03-15T12:25:18.821Z,4.50
2019-03-15T12:26:18.806Z,4.30
2019-03-15T12:27:18.798Z,4.80
2019-03-15T12:28:19.036Z,5.00
2019-03-15T12:29:18.773Z,6.69
2019-03-15T12:30:18.762Z,7.09
2019-03-15T12:31:18.752Z,6.19
2019-03-15T12:32:18.742Z,6.50
2019-03-15T12:33:18.734Z,5.59
2019-03-15T12:34:18.824Z,5.19
2019-03-15T12:35:18.710Z,4.50
2019-03-15T12:36:18.700Z,4.50
2019-03-15T12:37:18.691Z,4.80
2019-03-15T12:38:18.677Z,5.00
2019-03-15T12:39:18.665Z,5.30
2019-03-15T12:40:18.710Z,5.30
2019-03-15T12:41:18.641Z,4.69
2019-03-15T12:42:18.634Z,5.40
2019-03-15T12:43:18.624Z,5.50
2019-03-15T12:44:18.610Z,5.90
2019-03-15T12:45:18.601Z,6.09
2019-03-15T12:46:18.877Z,5.80
2019-03-15T12:47:18.578Z,6.40
2019-03-15T12:48:18.567Z,6.30
2019-03-15T12:49:18.554Z,6.50
2019-03-15T12:50:18.543Z,5.50
2019-03-15T12:51:31.298Z,6.09
2019-03-15T12:52:47.714Z,5.50
2019-03-15T12:53:43.426Z,5.69
2019-03-15T12:54:43.418Z,6.59
2019-03-15T12:55:43.405Z,5.90
2019-03-15T12:56:53.099Z,5.80
2019-03-15T12:58:08.295Z,7.30
2019-03-15T12:59:08.290Z,7.30
2019-03-15T13:00:08.270Z,10.50
2019-03-15T13:01:08.268Z,7.90
2019-03-15T13:02:08.247Z,10.10
2019-03-15T13:03:08.295Z,6.80
2019-03-15T13:04:08.232Z,6.69
2019-03-15T13:05:08.221Z,6.30
2019-03-15T13:06:08.210Z,7.09
2019-03-15T13:07:08.192Z,7.59
2019-03-15T13:08:08.187Z,6.90
2019-03-15T13:09:08.274Z,7.09
2019-03-15T13:10:10.215Z,7.90
2019-03-15T13:11:08.150Z,7.69
2019-03-15T13:12:08.137Z,7.30
2019-03-15T13:13:08.127Z,7.40
2019-03-15T13:14:08.273Z,7.69
2019-03-15T13:15:08.106Z,7.50